sensor_id;sensor_type;location;lat;lon;timestamp;P1;durP1;ratioP1;P2;durP2;ratioP2
40471;SDS011;26174;42.908;23.800;2023-06-26T00:00:45;21.10;;;8.68;;
40471;SDS011;26174;42.908;23.800;2023-06-26T00:03:12;15.35;;;8.07;;
40471;SDS011;26174;42.908;23.800;2023-06-26T00:05:40;20.75;;;8.68;;
40471;SDS011;26174;42.908;23.800;2023-06-26T00:08:06;20.27;;;9.27;;
40471;SDS011;26174;42.908;23.800;2023-06-26T00:10:32;18.20;;;9.00;;
40471;SDS011;26174;42.908;23.800;2023-06-26T00:12:57;30.67;;;10.45;;
40471;SDS011;26174;42.908;23.800;2023-06-26T00:15:25;27.33;;;8.95;;
40471;SDS011;26174;42.908;23.800;2023-06-26T00:17:50;29.25;;;9.50;;
40471;SDS011;26174;42.908;23.800;2023-06-26T00:20:16;23.60;;;9.23;;
40471;SDS011;26174;42.908;23.800;2023-06-26T00:22:43;34.67;;;9.55;;
40471;SDS011;26174;42.908;23.800;2023-06-26T00:25:10;26.65;;;10.45;;
40471;SDS011;26174;42.908;23.800;2023-06-26T00:27:35;22.73;;;10.32;;
40471;SDS011;26174;42.908;23.800;2023-06-26T00:30:01;28.63;;;9.75;;
40471;SDS011;26174;42.908;23.800;2023-06-26T00:32:26;25.42;;;10.23;;
40471;SDS011;26174;42.908;23.800;2023-06-26T00:34:52;32.65;;;11.25;;
40471;SDS011;26174;42.908;23.800;2023-06-26T00:37:18;38.50;;;10.45;;
40471;SDS011;26174;42.908;23.800;2023-06-26T00:39:43;31.20;;;10.73;;
40471;SDS011;26174;42.908;23.800;2023-06-26T00:42:09;30.17;;;11.10;;
40471;SDS011;26174;42.908;23.800;2023-06-26T00:44:34;28.65;;;11.10;;
40471;SDS011;26174;42.908;23.800;2023-06-26T00:47:00;33.22;;;11.23;;
40471;SDS011;26174;42.908;23.800;2023-06-26T00:49:26;34.05;;;10.00;;
40471;SDS011;26174;42.908;23.800;2023-06-26T00:51:51;34.15;;;11.00;;
40471;SDS011;26174;42.908;23.800;2023-06-26T00:54:17;28.83;;;11.13;;
40471;SDS011;26174;42.908;23.800;2023-06-26T00:56:45;27.13;;;10.75;;
40471;SDS011;26174;42.908;23.800;2023-06-26T00:59:12;26.13;;;9.90;;
40471;SDS011;26174;42.908;23.800;2023-06-26T01:01:38;31.80;;;10.48;;
40471;SDS011;26174;42.908;23.800;2023-06-26T01:04:04;24.27;;;10.10;;
40471;SDS011;26174;42.908;23.800;2023-06-26T01:06:30;32.53;;;11.10;;
40471;SDS011;26174;42.908;23.800;2023-06-26T01:09:00;34.00;;;11.25;;
40471;SDS011;26174;42.908;23.800;2023-06-26T01:11:26;37.35;;;10.13;;
40471;SDS011;26174;42.908;23.800;2023-06-26T01:13:52;27.25;;;11.18;;
40471;SDS011;26174;42.908;23.800;2023-06-26T01:16:19;37.38;;;12.02;;
40471;SDS011;26174;42.908;23.800;2023-06-26T01:18:45;31.00;;;11.50;;
40471;SDS011;26174;42.908;23.800;2023-06-26T01:21:11;36.35;;;11.57;;
40471;SDS011;26174;42.908;23.800;2023-06-26T01:23:57;37.00;;;12.20;;
40471;SDS011;26174;42.908;23.800;2023-06-26T01:26:29;26.35;;;11.65;;
40471;SDS011;26174;42.908;23.800;2023-06-26T01:28:56;34.55;;;11.32;;
40471;SDS011;26174;42.908;23.800;2023-06-26T01:31:22;38.53;;;11.57;;
40471;SDS011;26174;42.908;23.800;2023-06-26T01:33:48;33.92;;;11.25;;
40471;SDS011;26174;42.908;23.800;2023-06-26T01:36:14;38.05;;;11.57;;
40471;SDS011;26174;42.908;23.800;2023-06-26T01:38:40;32.08;;;11.73;;
40471;SDS011;26174;42.908;23.800;2023-06-26T01:41:06;26.40;;;10.68;;
40471;SDS011;26174;42.908;23.800;2023-06-26T01:46:05;28.00;;;11.63;;
40471;SDS011;26174;42.908;23.800;2023-06-26T01:48:46;31.98;;;11.60;;
40471;SDS011;26174;42.908;23.800;2023-06-26T01:51:16;32.27;;;11.83;;
40471;SDS011;26174;42.908;23.800;2023-06-26T01:53:44;34.42;;;12.20;;
40471;SDS011;26174;42.908;23.800;2023-06-26T01:59:24;35.03;;;12.95;;
40471;SDS011;26174;42.908;23.800;2023-06-26T02:01:52;29.90;;;11.75;;
40471;SDS011;26174;42.908;23.800;2023-06-26T02:04:17;32.92;;;12.02;;
40471;SDS011;26174;42.908;23.800;2023-06-26T02:06:43;34.85;;;12.18;;
40471;SDS011;26174;42.908;23.800;2023-06-26T02:09:08;31.48;;;12.18;;
40471;SDS011;26174;42.908;23.800;2023-06-26T02:11:34;32.95;;;12.30;;
40471;SDS011;26174;42.908;23.800;2023-06-26T02:14:00;31.05;;;12.00;;
40471;SDS011;26174;42.908;23.800;2023-06-26T02:16:25;33.08;;;12.05;;
40471;SDS011;26174;42.908;23.800;2023-06-26T02:18:51;29.17;;;11.52;;
40471;SDS011;26174;42.908;23.800;2023-06-26T02:21:16;23.45;;;10.00;;
40471;SDS011;26174;42.908;23.800;2023-06-26T02:23:42;24.75;;;8.63;;
40471;SDS011;26174;42.908;23.800;2023-06-26T02:26:07;18.40;;;8.43;;
40471;SDS011;26174;42.908;23.800;2023-06-26T02:28:33;22.30;;;9.63;;
40471;SDS011;26174;42.908;23.800;2023-06-26T02:30:59;28.83;;;11.18;;
40471;SDS011;26174;42.908;23.800;2023-06-26T02:33:25;24.88;;;11.73;;
40471;SDS011;26174;42.908;23.800;2023-06-26T02:35:51;37.60;;;12.85;;
40471;SDS011;26174;42.908;23.800;2023-06-26T02:38:16;35.45;;;13.40;;
40471;SDS011;26174;42.908;23.800;2023-06-26T02:40:42;37.72;;;13.48;;
40471;SDS011;26174;42.908;23.800;2023-06-26T02:43:07;43.88;;;12.90;;
40471;SDS011;26174;42.908;23.800;2023-06-26T02:45:33;41.40;;;14.52;;
40471;SDS011;26174;42.908;23.800;2023-06-26T02:47:58;44.97;;;14.70;;
40471;SDS011;26174;42.908;23.800;2023-06-26T02:50:24;40.15;;;14.82;;
40471;SDS011;26174;42.908;23.800;2023-06-26T02:52:49;47.25;;;14.32;;
40471;SDS011;26174;42.908;23.800;2023-06-26T02:55:17;42.60;;;14.52;;
40471;SDS011;26174;42.908;23.800;2023-06-26T02:57:44;46.25;;;14.45;;
40471;SDS011;26174;42.908;23.800;2023-06-26T03:00:10;31.98;;;13.27;;
40471;SDS011;26174;42.908;23.800;2023-06-26T03:02:36;50.47;;;12.73;;
40471;SDS011;26174;42.908;23.800;2023-06-26T03:05:02;32.70;;;13.30;;
40471;SDS011;26174;42.908;23.800;2023-06-26T03:07:28;30.10;;;10.77;;
40471;SDS011;26174;42.908;23.800;2023-06-26T03:09:53;31.30;;;11.55;;
40471;SDS011;26174;42.908;23.800;2023-06-26T03:12:19;35.20;;;12.13;;
40471;SDS011;26174;42.908;23.800;2023-06-26T03:14:44;42.95;;;13.30;;
40471;SDS011;26174;42.908;23.800;2023-06-26T03:17:10;31.70;;;11.93;;
40471;SDS011;26174;42.908;23.800;2023-06-26T03:19:35;39.08;;;13.43;;
40471;SDS011;26174;42.908;23.800;2023-06-26T03:22:00;64.85;;;18.50;;
40471;SDS011;26174;42.908;23.800;2023-06-26T03:24:26;73.57;;;22.77;;
40471;SDS011;26174;42.908;23.800;2023-06-26T03:26:51;42.35;;;12.75;;
40471;SDS011;26174;42.908;23.800;2023-06-26T03:29:17;24.02;;;9.27;;
40471;SDS011;26174;42.908;23.800;2023-06-26T03:31:43;28.67;;;11.10;;
40471;SDS011;26174;42.908;23.800;2023-06-26T03:34:08;32.40;;;10.98;;
40471;SDS011;26174;42.908;23.800;2023-06-26T03:36:33;33.35;;;10.70;;
40471;SDS011;26174;42.908;23.800;2023-06-26T03:39:00;32.58;;;11.02;;
40471;SDS011;26174;42.908;23.800;2023-06-26T03:41:26;40.88;;;12.65;;
40471;SDS011;26174;42.908;23.800;2023-06-26T03:43:51;39.25;;;12.15;;
40471;SDS011;26174;42.908;23.800;2023-06-26T03:46:17;38.38;;;12.98;;
40471;SDS011;26174;42.908;23.800;2023-06-26T03:48:42;43.75;;;13.25;;
40471;SDS011;26174;42.908;23.800;2023-06-26T03:51:08;39.17;;;13.20;;
40471;SDS011;26174;42.908;23.800;2023-06-26T03:53:34;33.15;;;12.32;;
40471;SDS011;26174;42.908;23.800;2023-06-26T03:55:59;32.85;;;12.88;;
40471;SDS011;26174;42.908;23.800;2023-06-26T03:58:25;31.67;;;11.77;;
40471;SDS011;26174;42.908;23.800;2023-06-26T04:00:50;32.05;;;13.63;;
40471;SDS011;26174;42.908;23.800;2023-06-26T04:03:16;32.40;;;13.48;;
40471;SDS011;26174;42.908;23.800;2023-06-26T04:05:42;38.40;;;13.93;;
40471;SDS011;26174;42.908;23.800;2023-06-26T04:08:08;59.97;;;23.63;;
40471;SDS011;26174;42.908;23.800;2023-06-26T04:10:34;31.48;;;12.50;;
40471;SDS011;26174;42.908;23.800;2023-06-26T04:13:01;34.28;;;13.65;;
40471;SDS011;26174;42.908;23.800;2023-06-26T04:15:26;24.70;;;12.63;;
40471;SDS011;26174;42.908;23.800;2023-06-26T04:17:52;37.58;;;14.93;;
40471;SDS011;26174;42.908;23.800;2023-06-26T04:20:17;47.30;;;15.18;;
40471;SDS011;26174;42.908;23.800;2023-06-26T04:22:43;42.85;;;15.57;;
40471;SDS011;26174;42.908;23.800;2023-06-26T04:25:09;45.35;;;15.65;;
40471;SDS011;26174;42.908;23.800;2023-06-26T04:27:37;36.97;;;15.80;;
40471;SDS011;26174;42.908;23.800;2023-06-26T04:30:02;44.60;;;16.75;;
40471;SDS011;26174;42.908;23.800;2023-06-26T04:32:28;41.38;;;14.32;;
40471;SDS011;26174;42.908;23.800;2023-06-26T04:34:53;28.88;;;13.20;;
40471;SDS011;26174;42.908;23.800;2023-06-26T04:37:19;35.03;;;13.57;;
40471;SDS011;26174;42.908;23.800;2023-06-26T04:39:45;34.33;;;15.00;;
40471;SDS011;26174;42.908;23.800;2023-06-26T04:42:11;46.53;;;15.30;;
40471;SDS011;26174;42.908;23.800;2023-06-26T04:44:37;53.78;;;16.13;;
40471;SDS011;26174;42.908;23.800;2023-06-26T04:47:03;41.70;;;14.57;;
40471;SDS011;26174;42.908;23.800;2023-06-26T04:49:29;42.35;;;13.40;;
40471;SDS011;26174;42.908;23.800;2023-06-26T04:51:55;35.22;;;13.20;;
40471;SDS011;26174;42.908;23.800;2023-06-26T04:54:21;53.33;;;17.50;;
40471;SDS011;26174;42.908;23.800;2023-06-26T04:56:47;43.38;;;15.15;;
40471;SDS011;26174;42.908;23.800;2023-06-26T04:59:12;35.22;;;13.75;;
40471;SDS011;26174;42.908;23.800;2023-06-26T05:01:39;47.25;;;14.55;;
40471;SDS011;26174;42.908;23.800;2023-06-26T05:04:05;36.70;;;13.50;;
40471;SDS011;26174;42.908;23.800;2023-06-26T05:06:31;46.50;;;16.05;;
40471;SDS011;26174;42.908;23.800;2023-06-26T05:08:57;38.08;;;14.18;;
40471;SDS011;26174;42.908;23.800;2023-06-26T05:11:22;52.38;;;23.02;;
40471;SDS011;26174;42.908;23.800;2023-06-26T05:13:49;38.83;;;14.85;;
40471;SDS011;26174;42.908;23.800;2023-06-26T05:16:14;43.72;;;16.90;;
40471;SDS011;26174;42.908;23.800;2023-06-26T05:18:40;35.33;;;13.65;;
40471;SDS011;26174;42.908;23.800;2023-06-26T05:21:05;50.60;;;14.32;;
40471;SDS011;26174;42.908;23.800;2023-06-26T05:23:32;40.13;;;16.42;;
40471;SDS011;26174;42.908;23.800;2023-06-26T05:25:59;41.75;;;19.10;;
40471;SDS011;26174;42.908;23.800;2023-06-26T05:28:25;31.02;;;13.52;;
40471;SDS011;26174;42.908;23.800;2023-06-26T05:30:52;58.17;;;26.33;;
40471;SDS011;26174;42.908;23.800;2023-06-26T05:33:18;37.17;;;14.23;;
40471;SDS011;26174;42.908;23.800;2023-06-26T05:35:45;36.90;;;12.85;;
40471;SDS011;26174;42.908;23.800;2023-06-26T05:38:11;37.25;;;13.68;;
40471;SDS011;26174;42.908;23.800;2023-06-26T05:40:39;28.95;;;13.68;;
40471;SDS011;26174;42.908;23.800;2023-06-26T05:43:08;29.52;;;12.52;;
40471;SDS011;26174;42.908;23.800;2023-06-26T05:45:33;27.60;;;12.38;;
40471;SDS011;26174;42.908;23.800;2023-06-26T05:47:59;34.35;;;13.32;;
40471;SDS011;26174;42.908;23.800;2023-06-26T05:50:26;28.98;;;12.75;;
40471;SDS011;26174;42.908;23.800;2023-06-26T05:52:52;30.15;;;12.48;;
40471;SDS011;26174;42.908;23.800;2023-06-26T05:55:18;30.65;;;12.90;;
40471;SDS011;26174;42.908;23.800;2023-06-26T05:57:45;32.08;;;13.15;;
40471;SDS011;26174;42.908;23.800;2023-06-26T06:00:11;30.20;;;13.27;;
40471;SDS011;26174;42.908;23.800;2023-06-26T06:02:38;38.47;;;16.98;;
40471;SDS011;26174;42.908;23.800;2023-06-26T06:05:04;58.53;;;33.33;;
40471;SDS011;26174;42.908;23.800;2023-06-26T06:07:31;35.05;;;13.77;;
40471;SDS011;26174;42.908;23.800;2023-06-26T06:10:00;22.40;;;10.95;;
40471;SDS011;26174;42.908;23.800;2023-06-26T06:12:26;22.08;;;10.13;;
40471;SDS011;26174;42.908;23.800;2023-06-26T06:14:52;20.48;;;10.15;;
40471;SDS011;26174;42.908;23.800;2023-06-26T06:17:18;24.98;;;10.55;;
40471;SDS011;26174;42.908;23.800;2023-06-26T06:19:45;42.67;;;22.65;;
40471;SDS011;26174;42.908;23.800;2023-06-26T06:22:10;28.67;;;12.88;;
40471;SDS011;26174;42.908;23.800;2023-06-26T06:24:36;48.05;;;27.58;;
40471;SDS011;26174;42.908;23.800;2023-06-26T06:27:01;21.13;;;9.77;;
40471;SDS011;26174;42.908;23.800;2023-06-26T06:29:27;18.15;;;8.02;;
40471;SDS011;26174;42.908;23.800;2023-06-26T06:31:52;20.67;;;10.70;;
40471;SDS011;26174;42.908;23.800;2023-06-26T06:34:18;17.38;;;7.65;;
40471;SDS011;26174;42.908;23.800;2023-06-26T06:36:43;26.00;;;10.35;;
40471;SDS011;26174;42.908;23.800;2023-06-26T06:39:09;18.45;;;9.05;;
40471;SDS011;26174;42.908;23.800;2023-06-26T06:41:34;15.13;;;8.88;;
40471;SDS011;26174;42.908;23.800;2023-06-26T06:44:00;16.10;;;9.75;;
40471;SDS011;26174;42.908;23.800;2023-06-26T06:46:25;17.30;;;7.65;;
40471;SDS011;26174;42.908;23.800;2023-06-26T06:48:52;15.88;;;6.60;;
40471;SDS011;26174;42.908;23.800;2023-06-26T06:51:18;10.55;;;6.78;;
40471;SDS011;26174;42.908;23.800;2023-06-26T06:53:43;10.20;;;6.38;;
40471;SDS011;26174;42.908;23.800;2023-06-26T06:56:09;16.02;;;7.07;;
40471;SDS011;26174;42.908;23.800;2023-06-26T06:58:34;13.88;;;6.30;;
40471;SDS011;26174;42.908;23.800;2023-06-26T07:01:01;8.68;;;5.90;;
40471;SDS011;26174;42.908;23.800;2023-06-26T07:03:29;19.02;;;6.68;;
40471;SDS011;26174;42.908;23.800;2023-06-26T07:05:55;10.10;;;6.35;;
40471;SDS011;26174;42.908;23.800;2023-06-26T07:08:21;11.65;;;6.57;;
40471;SDS011;26174;42.908;23.800;2023-06-26T07:10:46;14.65;;;6.82;;
40471;SDS011;26174;42.908;23.800;2023-06-26T07:13:12;13.07;;;6.38;;
40471;SDS011;26174;42.908;23.800;2023-06-26T07:15:37;13.00;;;7.30;;
40471;SDS011;26174;42.908;23.800;2023-06-26T07:18:03;23.05;;;16.15;;
40471;SDS011;26174;42.908;23.800;2023-06-26T07:20:29;14.35;;;7.40;;
40471;SDS011;26174;42.908;23.800;2023-06-26T07:22:54;11.23;;;6.57;;
40471;SDS011;26174;42.908;23.800;2023-06-26T07:25:20;15.75;;;7.65;;
40471;SDS011;26174;42.908;23.800;2023-06-26T07:27:45;20.75;;;9.75;;
40471;SDS011;26174;42.908;23.800;2023-06-26T07:30:11;15.35;;;8.45;;
40471;SDS011;26174;42.908;23.800;2023-06-26T07:32:37;14.30;;;7.70;;
40471;SDS011;26174;42.908;23.800;2023-06-26T07:35:03;15.82;;;8.68;;
40471;SDS011;26174;42.908;23.800;2023-06-26T07:37:29;15.25;;;8.07;;
40471;SDS011;26174;42.908;23.800;2023-06-26T07:39:54;10.75;;;7.00;;
40471;SDS011;26174;42.908;23.800;2023-06-26T07:42:20;46.33;;;29.02;;
40471;SDS011;26174;42.908;23.800;2023-06-26T07:44:45;23.35;;;12.93;;
40471;SDS011;26174;42.908;23.800;2023-06-26T07:47:11;12.02;;;7.82;;
40471;SDS011;26174;42.908;23.800;2023-06-26T07:49:36;15.75;;;8.25;;
40471;SDS011;26174;42.908;23.800;2023-06-26T07:52:04;21.30;;;11.88;;
40471;SDS011;26174;42.908;23.800;2023-06-26T07:54:29;10.40;;;6.68;;
40471;SDS011;26174;42.908;23.800;2023-06-26T07:56:59;12.93;;;5.93;;
40471;SDS011;26174;42.908;23.800;2023-06-26T07:59:27;12.40;;;6.45;;
40471;SDS011;26174;42.908;23.800;2023-06-26T08:01:54;17.30;;;6.13;;
40471;SDS011;26174;42.908;23.800;2023-06-26T08:04:22;11.93;;;7.35;;
40471;SDS011;26174;42.908;23.800;2023-06-26T08:06:50;10.55;;;6.25;;
40471;SDS011;26174;42.908;23.800;2023-06-26T08:09:17;12.68;;;5.97;;
40471;SDS011;26174;42.908;23.800;2023-06-26T08:11:43;7.75;;;4.75;;
40471;SDS011;26174;42.908;23.800;2023-06-26T08:14:09;10.35;;;4.97;;
40471;SDS011;26174;42.908;23.800;2023-06-26T08:16:36;17.02;;;5.82;;
40471;SDS011;26174;42.908;23.800;2023-06-26T08:19:03;6.65;;;5.10;;
40471;SDS011;26174;42.908;23.800;2023-06-26T08:21:28;12.00;;;5.05;;
40471;SDS011;26174;42.908;23.800;2023-06-26T08:23:54;10.65;;;5.03;;
40471;SDS011;26174;42.908;23.800;2023-06-26T08:26:19;11.60;;;4.78;;
40471;SDS011;26174;42.908;23.800;2023-06-26T08:28:45;12.77;;;6.45;;
40471;SDS011;26174;42.908;23.800;2023-06-26T08:31:10;14.25;;;6.60;;
40471;SDS011;26174;42.908;23.800;2023-06-26T08:33:36;6.95;;;4.53;;
40471;SDS011;26174;42.908;23.800;2023-06-26T08:36:01;8.98;;;4.80;;
40471;SDS011;26174;42.908;23.800;2023-06-26T08:38:27;5.78;;;4.65;;
40471;SDS011;26174;42.908;23.800;2023-06-26T08:40:53;7.50;;;4.15;;
40471;SDS011;26174;42.908;23.800;2023-06-26T08:43:18;6.80;;;4.68;;
40471;SDS011;26174;42.908;23.800;2023-06-26T08:45:45;6.63;;;4.70;;
40471;SDS011;26174;42.908;23.800;2023-06-26T08:48:11;7.20;;;4.63;;
40471;SDS011;26174;42.908;23.800;2023-06-26T08:50:37;6.55;;;4.63;;
40471;SDS011;26174;42.908;23.800;2023-06-26T08:53:04;6.32;;;5.22;;
40471;SDS011;26174;42.908;23.800;2023-06-26T08:55:41;13.10;;;5.50;;
40471;SDS011;26174;42.908;23.800;2023-06-26T08:58:08;60.10;;;38.92;;
40471;SDS011;26174;42.908;23.800;2023-06-26T09:00:34;27.05;;;18.83;;
40471;SDS011;26174;42.908;23.800;2023-06-26T09:03:00;19.13;;;6.95;;
40471;SDS011;26174;42.908;23.800;2023-06-26T09:05:26;19.02;;;8.05;;
40471;SDS011;26174;42.908;23.800;2023-06-26T09:07:56;15.32;;;5.28;;
40471;SDS011;26174;42.908;23.800;2023-06-26T09:10:22;7.88;;;5.72;;
40471;SDS011;26174;42.908;23.800;2023-06-26T09:12:47;5.35;;;4.30;;
40471;SDS011;26174;42.908;23.800;2023-06-26T09:15:19;10.10;;;5.07;;
40471;SDS011;26174;42.908;23.800;2023-06-26T09:17:45;8.38;;;5.15;;
40471;SDS011;26174;42.908;23.800;2023-06-26T09:20:12;24.65;;;16.05;;
40471;SDS011;26174;42.908;23.800;2023-06-26T09:22:40;6.60;;;4.15;;
40471;SDS011;26174;42.908;23.800;2023-06-26T09:25:08;7.63;;;4.13;;
40471;SDS011;26174;42.908;23.800;2023-06-26T09:27:34;7.32;;;4.57;;
40471;SDS011;26174;42.908;23.800;2023-06-26T09:30:06;6.45;;;4.30;;
40471;SDS011;26174;42.908;23.800;2023-06-26T09:35:03;10.48;;;4.22;;
40471;SDS011;26174;42.908;23.800;2023-06-26T09:37:29;9.40;;;6.75;;
40471;SDS011;26174;42.908;23.800;2023-06-26T09:39:55;7.68;;;4.55;;
40471;SDS011;26174;42.908;23.800;2023-06-26T09:42:23;6.30;;;4.90;;
40471;SDS011;26174;42.908;23.800;2023-06-26T09:44:49;7.50;;;5.07;;
40471;SDS011;26174;42.908;23.800;2023-06-26T09:47:16;5.05;;;4.13;;
40471;SDS011;26174;42.908;23.800;2023-06-26T09:49:44;5.72;;;4.03;;
40471;SDS011;26174;42.908;23.800;2023-06-26T09:52:10;6.10;;;4.55;;
40471;SDS011;26174;42.908;23.800;2023-06-26T09:54:40;7.93;;;4.63;;
40471;SDS011;26174;42.908;23.800;2023-06-26T09:57:09;6.55;;;4.95;;
40471;SDS011;26174;42.908;23.800;2023-06-26T09:59:35;36.70;;;25.33;;
40471;SDS011;26174;42.908;23.800;2023-06-26T10:02:01;5.30;;;4.20;;
40471;SDS011;26174;42.908;23.800;2023-06-26T10:04:27;5.45;;;4.25;;
40471;SDS011;26174;42.908;23.800;2023-06-26T10:06:54;6.65;;;4.00;;
40471;SDS011;26174;42.908;23.800;2023-06-26T10:09:21;10.23;;;6.60;;
40471;SDS011;26174;42.908;23.800;2023-06-26T10:14:39;6.47;;;5.05;;
40471;SDS011;26174;42.908;23.800;2023-06-26T10:17:08;9.65;;;4.68;;
40471;SDS011;26174;42.908;23.800;2023-06-26T10:19:35;5.82;;;4.45;;
40471;SDS011;26174;42.908;23.800;2023-06-26T10:22:02;10.30;;;4.40;;
40471;SDS011;26174;42.908;23.800;2023-06-26T10:24:29;8.13;;;4.00;;
40471;SDS011;26174;42.908;23.800;2023-06-26T10:27:17;8.82;;;4.88;;
40471;SDS011;26174;42.908;23.800;2023-06-26T10:29:50;12.75;;;4.90;;
40471;SDS011;26174;42.908;23.800;2023-06-26T10:32:24;8.98;;;4.88;;
40471;SDS011;26174;42.908;23.800;2023-06-26T10:34:51;9.52;;;5.00;;
40471;SDS011;26174;42.908;23.800;2023-06-26T10:37:17;10.70;;;5.35;;
40471;SDS011;26174;42.908;23.800;2023-06-26T10:39:46;12.90;;;7.15;;
40471;SDS011;26174;42.908;23.800;2023-06-26T10:42:14;20.60;;;12.57;;
40471;SDS011;26174;42.908;23.800;2023-06-26T10:44:41;14.00;;;5.22;;
40471;SDS011;26174;42.908;23.800;2023-06-26T10:47:08;8.10;;;5.07;;
40471;SDS011;26174;42.908;23.800;2023-06-26T10:49:41;9.68;;;5.03;;
40471;SDS011;26174;42.908;23.800;2023-06-26T10:52:12;7.18;;;4.47;;
40471;SDS011;26174;42.908;23.800;2023-06-26T10:54:40;8.98;;;4.30;;
40471;SDS011;26174;42.908;23.800;2023-06-26T10:57:05;6.75;;;4.63;;
40471;SDS011;26174;42.908;23.800;2023-06-26T10:59:38;11.82;;;4.63;;
40471;SDS011;26174;42.908;23.800;2023-06-26T11:02:13;4.13;;;3.65;;
40471;SDS011;26174;42.908;23.800;2023-06-26T11:07:15;5.50;;;4.20;;
40471;SDS011;26174;42.908;23.800;2023-06-26T11:15:03;10.82;;;4.57;;
40471;SDS011;26174;42.908;23.800;2023-06-26T11:17:32;7.10;;;4.30;;
40471;SDS011;26174;42.908;23.800;2023-06-26T11:19:57;6.95;;;3.60;;
40471;SDS011;26174;42.908;23.800;2023-06-26T11:22:23;4.40;;;2.97;;
40471;SDS011;26174;42.908;23.800;2023-06-26T11:24:51;12.55;;;3.63;;
40471;SDS011;26174;42.908;23.800;2023-06-26T11:27:18;7.60;;;3.60;;
40471;SDS011;26174;42.908;23.800;2023-06-26T11:29:48;10.27;;;7.10;;
40471;SDS011;26174;42.908;23.800;2023-06-26T11:32:14;6.50;;;3.97;;
40471;SDS011;26174;42.908;23.800;2023-06-26T11:34:40;10.45;;;6.07;;
40471;SDS011;26174;42.908;23.800;2023-06-26T11:37:07;8.23;;;4.78;;
40471;SDS011;26174;42.908;23.800;2023-06-26T11:39:33;13.13;;;5.70;;
40471;SDS011;26174;42.908;23.800;2023-06-26T11:41:59;11.07;;;4.35;;
40471;SDS011;26174;42.908;23.800;2023-06-26T11:44:28;9.50;;;4.40;;
40471;SDS011;26174;42.908;23.800;2023-06-26T11:46:55;5.65;;;4.05;;
40471;SDS011;26174;42.908;23.800;2023-06-26T11:49:22;7.93;;;4.53;;
40471;SDS011;26174;42.908;23.800;2023-06-26T11:51:50;11.57;;;4.85;;
40471;SDS011;26174;42.908;23.800;2023-06-26T11:54:16;8.63;;;4.30;;
40471;SDS011;26174;42.908;23.800;2023-06-26T11:56:58;15.82;;;4.30;;
40471;SDS011;26174;42.908;23.800;2023-06-26T11:59:24;7.40;;;4.53;;
40471;SDS011;26174;42.908;23.800;2023-06-26T12:01:58;6.93;;;4.30;;
40471;SDS011;26174;42.908;23.800;2023-06-26T12:04:23;10.85;;;4.35;;
40471;SDS011;26174;42.908;23.800;2023-06-26T12:06:51;6.70;;;4.55;;
40471;SDS011;26174;42.908;23.800;2023-06-26T12:09:22;11.70;;;4.95;;
40471;SDS011;26174;42.908;23.800;2023-06-26T12:11:48;12.35;;;4.70;;
40471;SDS011;26174;42.908;23.800;2023-06-26T12:14:17;4.88;;;3.90;;
40471;SDS011;26174;42.908;23.800;2023-06-26T12:16:44;5.30;;;3.72;;
40471;SDS011;26174;42.908;23.800;2023-06-26T12:19:10;22.85;;;5.20;;
40471;SDS011;26174;42.908;23.800;2023-06-26T12:24:01;12.65;;;4.40;;
40471;SDS011;26174;42.908;23.800;2023-06-26T12:26:27;7.22;;;5.20;;
40471;SDS011;26174;42.908;23.800;2023-06-26T12:29:58;8.95;;;7.20;;
40471;SDS011;26174;42.908;23.800;2023-06-26T12:32:02;6.07;;;4.10;;
40471;SDS011;26174;42.908;23.800;2023-06-26T12:34:28;8.57;;;5.00;;
40471;SDS011;26174;42.908;23.800;2023-06-26T12:36:59;7.22;;;4.07;;
40471;SDS011;26174;42.908;23.800;2023-06-26T12:39:47;8.43;;;4.60;;
40471;SDS011;26174;42.908;23.800;2023-06-26T12:42:18;6.30;;;4.43;;
40471;SDS011;26174;42.908;23.800;2023-06-26T12:44:44;8.65;;;4.47;;
40471;SDS011;26174;42.908;23.800;2023-06-26T12:47:10;8.35;;;4.00;;
40471;SDS011;26174;42.908;23.800;2023-06-26T12:49:38;8.73;;;4.22;;
40471;SDS011;26174;42.908;23.800;2023-06-26T12:52:05;7.88;;;3.45;;
40471;SDS011;26174;42.908;23.800;2023-06-26T12:54:36;18.42;;;5.13;;
40471;SDS011;26174;42.908;23.800;2023-06-26T12:57:03;6.60;;;3.93;;
40471;SDS011;26174;42.908;23.800;2023-06-26T12:59:29;6.05;;;3.80;;
40471;SDS011;26174;42.908;23.800;2023-06-26T13:01:58;10.02;;;4.20;;
40471;SDS011;26174;42.908;23.800;2023-06-26T13:04:24;7.25;;;4.43;;
40471;SDS011;26174;42.908;23.800;2023-06-26T13:06:50;11.90;;;3.85;;
40471;SDS011;26174;42.908;23.800;2023-06-26T13:09:16;9.45;;;4.68;;
40471;SDS011;26174;42.908;23.800;2023-06-26T13:11:42;9.20;;;4.10;;
40471;SDS011;26174;42.908;23.800;2023-06-26T13:14:08;12.02;;;4.10;;
40471;SDS011;26174;42.908;23.800;2023-06-26T13:16:33;9.38;;;4.10;;
40471;SDS011;26174;42.908;23.800;2023-06-26T13:19:02;9.85;;;3.88;;
40471;SDS011;26174;42.908;23.800;2023-06-26T13:21:30;7.03;;;4.50;;
40471;SDS011;26174;42.908;23.800;2023-06-26T13:23:56;12.68;;;5.57;;
40471;SDS011;26174;42.908;23.800;2023-06-26T13:26:22;7.57;;;4.40;;
40471;SDS011;26174;42.908;23.800;2023-06-26T13:28:48;8.98;;;4.38;;
40471;SDS011;26174;42.908;23.800;2023-06-26T13:31:14;11.70;;;4.90;;
40471;SDS011;26174;42.908;23.800;2023-06-26T13:33:40;6.88;;;4.50;;
40471;SDS011;26174;42.908;23.800;2023-06-26T13:36:06;8.07;;;4.88;;
40471;SDS011;26174;42.908;23.800;2023-06-26T13:38:34;13.38;;;5.55;;
40471;SDS011;26174;42.908;23.800;2023-06-26T13:41:03;10.73;;;5.70;;
40471;SDS011;26174;42.908;23.800;2023-06-26T13:43:28;10.27;;;5.90;;
40471;SDS011;26174;42.908;23.800;2023-06-26T13:45:54;9.02;;;4.03;;
40471;SDS011;26174;42.908;23.800;2023-06-26T13:48:20;8.45;;;3.85;;
40471;SDS011;26174;42.908;23.800;2023-06-26T13:50:46;9.68;;;4.20;;
40471;SDS011;26174;42.908;23.800;2023-06-26T13:53:12;7.60;;;4.50;;
40471;SDS011;26174;42.908;23.800;2023-06-26T13:55:38;6.95;;;4.38;;
40471;SDS011;26174;42.908;23.800;2023-06-26T13:58:05;18.70;;;14.27;;
40471;SDS011;26174;42.908;23.800;2023-06-26T14:00:32;4.68;;;3.75;;
40471;SDS011;26174;42.908;23.800;2023-06-26T14:03:07;6.60;;;4.22;;
40471;SDS011;26174;42.908;23.800;2023-06-26T14:05:33;9.90;;;3.80;;
40471;SDS011;26174;42.908;23.800;2023-06-26T14:08:02;4.95;;;3.25;;
40471;SDS011;26174;42.908;23.800;2023-06-26T14:10:29;6.57;;;4.38;;
40471;SDS011;26174;42.908;23.800;2023-06-26T14:12:55;7.82;;;4.82;;
40471;SDS011;26174;42.908;23.800;2023-06-26T14:15:30;6.15;;;4.38;;
40471;SDS011;26174;42.908;23.800;2023-06-26T14:17:56;8.80;;;4.28;;
40471;SDS011;26174;42.908;23.800;2023-06-26T14:20:21;6.07;;;3.70;;
40471;SDS011;26174;42.908;23.800;2023-06-26T14:22:47;9.15;;;4.10;;
40471;SDS011;26174;42.908;23.800;2023-06-26T14:25:14;8.48;;;4.30;;
40471;SDS011;26174;42.908;23.800;2023-06-26T14:27:44;11.70;;;3.42;;
40471;SDS011;26174;42.908;23.800;2023-06-26T14:30:09;4.35;;;3.20;;
40471;SDS011;26174;42.908;23.800;2023-06-26T14:32:38;7.22;;;3.40;;
40471;SDS011;26174;42.908;23.800;2023-06-26T14:35:04;7.05;;;3.30;;
40471;SDS011;26174;42.908;23.800;2023-06-26T14:37:30;7.80;;;3.05;;